createdAt,value
2023-05-22T00:01:46.664Z,94.33
2023-05-22T00:04:21.512Z,93.19
2023-05-22T00:06:49.588Z,100.00
2023-05-22T00:09:17.405Z,100.00
2023-05-22T00:11:45.144Z,100.00
2023-05-22T00:14:13.733Z,100.00
2023-05-22T00:16:41.722Z,100.00
2023-05-22T00:19:13.420Z,100.00
2023-05-22T00:21:41.518Z,100.00
2023-05-22T00:24:09.543Z,96.66
2023-05-22T00:26:37.313Z,96.82
2023-05-22T00:29:05.901Z,97.78
2023-05-22T00:31:33.739Z,97.93
2023-05-22T00:34:01.518Z,94.56
2023-05-22T00:36:30.695Z,100.00
2023-05-22T00:38:58.385Z,100.00
2023-05-22T00:41:26.494Z,100.00
2023-05-22T00:43:54.725Z,99.51
2023-05-22T00:46:23.080Z,100.00
2023-05-22T00:48:52.523Z,95.52
2023-05-22T00:51:21.722Z,100.00
2023-05-22T00:53:51.419Z,91.99
2023-05-22T00:56:19.831Z,94.34
2023-05-22T00:58:47.833Z,96.60
2023-05-22T01:01:16.144Z,100.00
2023-05-22T01:03:44.918Z,95.79
2023-05-22T01:06:14.081Z,100.00
2023-05-22T01:08:42.138Z,96.32
2023-05-22T01:11:15.358Z,99.11
2023-05-22T01:13:47.939Z,100.00
2023-05-22T01:16:38.314Z,96.71
2023-05-22T01:19:12.542Z,100.00
2023-05-22T01:21:46.363Z,100.00
2023-05-22T01:24:37.188Z,100.00
2023-05-22T01:27:25.932Z,100.00
2023-05-22T01:30:05.232Z,100.00
2023-05-22T01:32:36.055Z,100.00
2023-05-22T01:35:08.539Z,96.74
2023-05-22T01:37:37.417Z,94.71
2023-05-22T01:40:07.431Z,96.33
2023-05-22T01:42:35.372Z,98.20
2023-05-22T01:45:03.235Z,95.68
2023-05-22T01:47:31.457Z,89.77
2023-05-22T01:50:00.622Z,96.83
2023-05-22T01:52:34.501Z,99.64
2023-05-22T01:55:07.587Z,100.00
2023-05-22T01:57:39.255Z,100.00
2023-05-22T02:00:10.777Z,91.72
2023-05-22T02:02:39.977Z,94.69
2023-05-22T02:05:11.254Z,89.84
2023-05-22T02:07:39.637Z,91.14
2023-05-22T02:10:09.563Z,92.19
2023-05-22T02:12:37.649Z,95.96
2023-05-22T02:15:07.358Z,93.87
2023-05-22T02:17:40.259Z,95.62
2023-05-22T02:20:14.382Z,91.21
2023-05-22T02:22:43.770Z,90.16
2023-05-22T02:25:14.472Z,95.48
2023-05-22T02:27:43.204Z,88.59
2023-05-22T02:30:11.845Z,87.70
2023-05-22T02:32:40.213Z,91.00
2023-05-22T02:35:10.243Z,90.96
2023-05-22T02:37:37.999Z,89.97
2023-05-22T02:40:07.241Z,97.33
2023-05-22T02:42:35.354Z,91.83
2023-05-22T02:45:03.165Z,90.15
2023-05-22T02:47:31.025Z,89.48
2023-05-22T02:49:59.212Z,88.36
2023-05-22T02:52:28.379Z,90.25
2023-05-22T02:54:56.140Z,90.95
2023-05-22T02:57:23.867Z,91.85
2023-05-22T02:59:52.675Z,96.27
2023-05-22T03:02:20.491Z,97.04
2023-05-22T03:04:48.253Z,95.85
2023-05-22T03:07:15.947Z,100.00
2023-05-22T03:09:45.005Z,100.00
2023-05-22T03:12:12.642Z,99.48
2023-05-22T03:14:40.459Z,97.37
2023-05-22T03:17:08.119Z,96.61
2023-05-22T03:19:35.841Z,96.36
2023-05-22T03:22:03.900Z,95.70
2023-05-22T03:24:32.322Z,100.00
2023-05-22T03:27:11.656Z,94.05
2023-05-22T03:29:39.351Z,96.50
2023-05-22T03:32:07.442Z,97.64
2023-05-22T03:34:35.167Z,89.38
2023-05-22T03:37:02.863Z,87.72
2023-05-22T03:39:30.545Z,89.33
2023-05-22T03:42:00.704Z,87.82
2023-05-22T03:44:29.878Z,85.25
2023-05-22T03:46:57.552Z,80.13
2023-05-22T03:49:25.378Z,80.91
2023-05-22T03:51:53.043Z,87.71
2023-05-22T03:54:21.048Z,87.57
2023-05-22T03:56:48.768Z,83.05
2023-05-22T03:59:16.577Z,81.98
2023-05-22T04:01:46.546Z,88.01
2023-05-22T04:04:14.382Z,84.45
2023-05-22T04:06:43.918Z,94.97
2023-05-22T04:09:12.692Z,89.05
2023-05-22T04:11:42.174Z,94.75
2023-05-22T04:14:10.301Z,85.81
2023-05-22T04:16:37.979Z,84.78
2023-05-22T04:19:09.568Z,89.25
2023-05-22T04:21:38.294Z,86.48
2023-05-22T04:24:09.487Z,88.13
2023-05-22T04:26:37.305Z,85.27
2023-05-22T04:29:10.274Z,80.49
2023-05-22T04:31:38.269Z,85.03
2023-05-22T04:34:07.558Z,88.19
2023-05-22T04:36:35.956Z,83.50
2023-05-22T04:39:04.058Z,81.34
2023-05-22T04:41:32.447Z,86.58
2023-05-22T04:44:00.524Z,91.48
2023-05-22T04:46:28.831Z,84.03
2023-05-22T04:48:56.573Z,80.55
2023-05-22T04:51:25.621Z,78.78
2023-05-22T04:53:55.643Z,82.70
2023-05-22T04:56:35.528Z,89.49
2023-05-22T04:59:09.068Z,85.85
2023-05-22T05:01:37.998Z,84.54
2023-05-22T05:04:29.390Z,86.01
2023-05-22T05:06:58.655Z,84.13
2023-05-22T05:09:26.422Z,84.28
2023-05-22T05:11:54.337Z,92.41
2023-05-22T05:14:22.275Z,90.69
2023-05-22T05:16:51.726Z,86.08
2023-05-22T05:19:21.444Z,92.70
2023-05-22T05:21:49.655Z,88.36
2023-05-22T05:24:19.012Z,91.07
2023-05-22T05:26:47.001Z,88.72
2023-05-22T05:29:14.668Z,83.58
2023-05-22T05:31:42.595Z,91.14
2023-05-22T05:34:10.315Z,87.22
2023-05-22T05:36:38.098Z,83.60
2023-05-22T05:39:06.131Z,81.56
2023-05-22T05:41:35.378Z,85.43
2023-05-22T05:44:03.057Z,87.48
2023-05-22T05:46:30.780Z,87.34
2023-05-22T05:48:59.327Z,86.51
2023-05-22T05:51:27.083Z,91.62
2023-05-22T05:53:54.698Z,85.38
2023-05-22T05:56:22.675Z,82.65
2023-05-22T05:59:22.908Z,86.92
2023-05-22T06:01:50.623Z,83.05
2023-05-22T06:04:18.275Z,85.05
2023-05-22T06:06:47.715Z,82.16
2023-05-22T06:09:15.393Z,84.84
2023-05-22T06:11:43.046Z,81.67
2023-05-22T06:14:11.064Z,78.63
2023-05-22T06:16:40.722Z,78.04
2023-05-22T06:19:08.731Z,85.01
2023-05-22T06:21:36.455Z,83.59
2023-05-22T06:24:04.142Z,84.75
2023-05-22T06:26:31.805Z,77.40
2023-05-22T06:28:59.428Z,75.56
2023-05-22T06:31:28.092Z,77.41
2023-05-22T06:33:57.313Z,77.91
2023-05-22T06:36:24.991Z,82.24
2023-05-22T06:38:54.645Z,89.74
2023-05-22T06:41:22.837Z,85.90
2023-05-22T06:43:50.637Z,96.09
2023-05-22T06:46:18.334Z,92.06
2023-05-22T06:48:46.063Z,86.82
2023-05-22T06:51:15.293Z,88.89
2023-05-22T06:53:43.022Z,82.40
2023-05-22T06:56:10.797Z,72.43
2023-05-22T06:58:52.458Z,82.16
2023-05-22T07:01:20.246Z,75.97
2023-05-22T07:03:47.948Z,75.54
2023-05-22T07:06:18.296Z,71.67
2023-05-22T07:08:46.291Z,76.33
2023-05-22T07:11:14.016Z,67.99
2023-05-22T07:13:41.746Z,70.88
2023-05-22T07:16:09.497Z,67.80
2023-05-22T07:18:37.206Z,89.04
2023-05-22T07:21:05.444Z,72.56
2023-05-22T07:23:34.658Z,75.20
2023-05-22T07:26:02.338Z,64.63
2023-05-22T07:28:30.628Z,79.00
2023-05-22T07:30:58.346Z,78.48
2023-05-22T07:33:26.792Z,71.80
2023-05-22T07:35:54.479Z,82.41
2023-05-22T07:38:22.365Z,78.74
2023-05-22T07:40:51.504Z,79.37
2023-05-22T07:43:19.213Z,80.10
2023-05-22T07:45:46.856Z,70.64
2023-05-22T07:48:14.685Z,78.46
2023-05-22T07:50:44.844Z,68.59
2023-05-22T07:53:12.780Z,76.43
2023-05-22T07:55:41.030Z,74.48
2023-05-22T07:58:10.846Z,70.76
2023-05-22T08:00:38.594Z,77.71
2023-05-22T08:03:06.727Z,69.19
2023-05-22T08:05:34.494Z,73.80
2023-05-22T08:08:03.251Z,71.37
2023-05-22T08:10:46.426Z,72.53
2023-05-22T08:13:20.716Z,76.61
2023-05-22T08:15:48.357Z,71.27
2023-05-22T08:18:16.083Z,69.95
2023-05-22T08:20:43.743Z,62.68
2023-05-22T08:23:11.486Z,70.26
2023-05-22T08:25:39.189Z,68.14
2023-05-22T08:28:07.535Z,73.74
2023-05-22T08:30:37.356Z,64.31
2023-05-22T08:33:05.642Z,64.87
2023-05-22T08:35:33.447Z,60.74
2023-05-22T08:38:01.375Z,60.06
2023-05-22T08:40:35.612Z,69.85
2023-05-22T08:43:03.404Z,62.46
2023-05-22T08:45:34.139Z,62.61
2023-05-22T08:48:06.447Z,65.50
2023-05-22T08:50:36.907Z,63.44
2023-05-22T08:53:06.625Z,64.07
2023-05-22T08:55:34.735Z,58.44
2023-05-22T08:58:02.489Z,63.14
2023-05-22T09:00:30.429Z,66.93
2023-05-22T09:02:58.794Z,60.40
2023-05-22T09:05:28.134Z,59.40
2023-05-22T09:07:58.423Z,69.92
2023-05-22T09:10:30.811Z,68.82
2023-05-22T09:13:04.274Z,63.29
2023-05-22T09:15:33.064Z,61.45
2023-05-22T09:18:00.797Z,66.25
2023-05-22T09:20:29.901Z,67.57
2023-05-22T09:22:57.984Z,71.21
2023-05-22T09:25:26.516Z,74.43
2023-05-22T09:27:54.675Z,67.06
2023-05-22T09:30:22.382Z,64.26
2023-05-22T09:32:50.403Z,64.16
2023-05-22T09:35:19.733Z,66.20
2023-05-22T09:37:51.086Z,70.81
2023-05-22T09:40:18.804Z,67.77
2023-05-22T09:42:46.701Z,67.71
2023-05-22T09:45:14.505Z,69.34
2023-05-22T09:47:42.302Z,67.73
2023-05-22T09:50:10.844Z,63.13
2023-05-22T09:52:39.092Z,68.27
2023-05-22T09:55:09.688Z,67.48
2023-05-22T09:57:43.647Z,63.16
2023-05-22T10:00:15.191Z,68.54
2023-05-22T10:02:46.061Z,64.57
2023-05-22T10:05:21.174Z,57.23
2023-05-22T10:07:51.792Z,66.17
2023-05-22T10:10:22.776Z,68.71
2023-05-22T10:12:53.964Z,64.43
2023-05-22T10:15:22.254Z,65.13
2023-05-22T10:17:50.832Z,75.15
2023-05-22T10:20:18.601Z,70.14
2023-05-22T10:22:48.866Z,68.43
2023-05-22T10:25:18.246Z,63.46
2023-05-22T10:27:47.603Z,67.80
2023-05-22T10:30:21.382Z,62.00
2023-05-22T10:32:53.755Z,61.45
2023-05-22T10:35:23.992Z,60.73
2023-05-22T10:37:54.306Z,65.83
2023-05-22T10:40:29.076Z,66.66
2023-05-22T10:43:02.722Z,58.34
2023-05-22T10:45:31.664Z,59.08
2023-05-22T10:48:06.814Z,63.49
2023-05-22T10:50:34.788Z,65.29
2023-05-22T10:56:38.901Z,60.16
2023-05-22T10:59:08.607Z,61.07
2023-05-22T11:01:37.714Z,64.14
2023-05-22T11:04:12.896Z,58.50
2023-05-22T11:06:42.647Z,57.18
2023-05-22T11:09:18.949Z,57.14
2023-05-22T11:11:46.956Z,57.88
2023-05-22T11:14:17.688Z,55.61
2023-05-22T11:16:45.589Z,54.80
2023-05-22T11:19:23.217Z,51.70
2023-05-22T11:21:51.954Z,57.91
2023-05-22T11:24:20.074Z,55.58
2023-05-22T11:27:02.873Z,55.88
2023-05-22T11:29:32.301Z,54.08
2023-05-22T11:32:00.883Z,53.80
2023-05-22T11:34:28.954Z,55.50
2023-05-22T11:36:59.432Z,53.49
2023-05-22T11:39:27.278Z,52.60
2023-05-22T11:41:55.197Z,52.84
2023-05-22T11:44:22.878Z,51.11
2023-05-22T11:46:52.122Z,52.00
2023-05-22T11:49:23.961Z,50.64
2023-05-22T11:51:52.979Z,51.09
2023-05-22T11:54:22.196Z,49.22
2023-05-22T11:56:49.906Z,53.55
2023-05-22T11:59:17.641Z,51.71
2023-05-22T12:01:45.428Z,50.33
2023-05-22T12:04:15.743Z,45.53
2023-05-22T12:06:43.689Z,50.76
2023-05-22T12:09:11.637Z,50.04
2023-05-22T12:11:39.472Z,49.81
2023-05-22T12:14:07.555Z,49.03
2023-05-22T12:16:36.457Z,54.92
2023-05-22T12:19:07.800Z,48.34
2023-05-22T12:21:37.620Z,48.93
2023-05-22T12:24:06.192Z,50.08
2023-05-22T12:26:34.239Z,49.38
2023-05-22T12:29:02.708Z,46.40
2023-05-22T12:31:35.910Z,47.66
2023-05-22T12:34:07.589Z,50.04
2023-05-22T12:36:40.221Z,47.27
2023-05-22T12:39:12.463Z,47.63
2023-05-22T12:41:40.247Z,46.17
2023-05-22T12:44:07.930Z,45.80
2023-05-22T12:46:36.075Z,44.89
2023-05-22T12:49:03.870Z,43.00
2023-05-22T12:51:33.232Z,42.03
2023-05-22T12:54:02.790Z,43.67
2023-05-22T12:56:30.676Z,42.97
2023-05-22T12:58:58.538Z,40.87
2023-05-22T13:01:27.284Z,39.87
2023-05-22T13:03:55.119Z,39.37
2023-05-22T13:06:22.842Z,39.41
2023-05-22T13:08:50.530Z,42.56
2023-05-22T13:11:23.427Z,43.10
2023-05-22T13:13:51.204Z,41.03
2023-05-22T13:16:19.129Z,42.92
2023-05-22T13:18:47.268Z,41.57
2023-05-22T13:21:15.285Z,39.60
2023-05-22T13:23:43.326Z,39.84
2023-05-22T13:26:11.069Z,38.91
2023-05-22T13:28:40.209Z,42.55
2023-05-22T13:31:08.268Z,41.04
2023-05-22T13:33:36.040Z,37.58
2023-05-22T13:36:03.755Z,35.29
2023-05-22T13:38:31.459Z,39.02
2023-05-22T13:40:59.252Z,33.85
2023-05-22T13:43:27.140Z,38.19
2023-05-22T13:45:56.461Z,36.72
2023-05-22T13:48:24.146Z,35.28
2023-05-22T13:50:52.417Z,38.67
2023-05-22T13:53:20.228Z,37.18
2023-05-22T13:55:47.904Z,36.25
2023-05-22T13:58:15.636Z,36.42
2023-05-22T14:00:43.408Z,38.87
2023-05-22T14:03:17.422Z,36.42
2023-05-22T14:05:45.728Z,34.03
2023-05-22T14:08:13.713Z,35.36
2023-05-22T14:10:42.105Z,34.21
2023-05-22T14:13:09.847Z,40.75
2023-05-22T14:15:37.616Z,37.15
2023-05-22T14:18:05.495Z,36.99
2023-05-22T14:20:34.670Z,36.11
2023-05-22T14:23:02.342Z,37.71
2023-05-22T14:25:30.035Z,36.28
2023-05-22T14:27:57.869Z,39.61
2023-05-22T14:30:25.786Z,36.36
2023-05-22T14:32:53.632Z,36.45
2023-05-22T14:35:21.447Z,38.08
2023-05-22T14:37:50.814Z,35.21
2023-05-22T14:40:18.613Z,36.09
2023-05-22T14:42:46.619Z,40.78
2023-05-22T14:45:14.431Z,34.37
2023-05-22T14:47:43.195Z,37.44
2023-05-22T14:50:18.974Z,37.27
2023-05-22T14:52:47.925Z,39.47
2023-05-22T14:55:17.543Z,42.95
2023-05-22T14:57:45.486Z,38.07
2023-05-22T15:00:14.356Z,33.93
2023-05-22T15:02:42.131Z,34.26
2023-05-22T15:05:11.351Z,35.82
2023-05-22T15:07:44.586Z,34.43
2023-05-22T15:10:14.379Z,34.04
2023-05-22T15:12:43.483Z,35.74
2023-05-22T15:15:12.085Z,36.42
2023-05-22T15:17:42.694Z,37.49
2023-05-22T15:20:11.671Z,33.72
2023-05-22T15:22:39.418Z,34.10
2023-05-22T15:25:08.436Z,37.80
2023-05-22T15:27:36.761Z,37.63
2023-05-22T15:30:09.539Z,40.08
2023-05-22T15:32:37.547Z,34.10
2023-05-22T15:35:06.676Z,34.27
2023-05-22T15:37:36.336Z,35.94
2023-05-22T15:40:05.835Z,37.71
2023-05-22T15:42:34.994Z,35.57
2023-05-22T15:45:02.750Z,38.47
2023-05-22T15:47:31.926Z,40.41
2023-05-22T15:50:00.130Z,42.78
2023-05-22T15:52:27.920Z,44.18
2023-05-22T15:54:57.077Z,45.74
2023-05-22T15:57:25.073Z,45.50
2023-05-22T15:59:52.771Z,44.10
2023-05-22T16:02:20.504Z,45.01
2023-05-22T16:04:51.321Z,45.90
2023-05-22T16:07:20.263Z,44.62
2023-05-22T16:09:50.096Z,45.28
2023-05-22T16:12:18.191Z,45.38
2023-05-22T16:14:45.980Z,47.65
2023-05-22T16:17:13.737Z,46.54
2023-05-22T16:19:41.443Z,47.06
2023-05-22T16:22:10.624Z,45.55
2023-05-22T16:24:38.411Z,46.35
2023-05-22T16:27:07.360Z,45.93
2023-05-22T16:29:35.098Z,46.07
2023-05-22T16:32:03.728Z,47.21
2023-05-22T16:34:33.839Z,45.84
2023-05-22T16:37:01.899Z,48.58
2023-05-22T16:39:31.034Z,48.26
2023-05-22T16:41:58.758Z,48.48
2023-05-22T16:44:26.557Z,52.74
2023-05-22T16:46:54.290Z,62.12
2023-05-22T16:49:22.008Z,68.21
2023-05-22T16:51:49.697Z,69.54
2023-05-22T16:54:17.473Z,67.43
2023-05-22T16:56:46.589Z,67.53
2023-05-22T16:59:14.286Z,62.61
2023-05-22T17:01:42.361Z,61.78
2023-05-22T17:04:11.257Z,62.35
2023-05-22T17:06:39.604Z,67.37
2023-05-22T17:09:08.113Z,68.81
2023-05-22T17:11:35.990Z,71.14
2023-05-22T17:14:05.376Z,70.85
2023-05-22T17:16:33.467Z,74.76
2023-05-22T17:19:01.876Z,70.86
2023-05-22T17:21:30.769Z,74.40
2023-05-22T17:23:58.596Z,73.51
2023-05-22T17:26:27.437Z,80.99
2023-05-22T17:28:55.093Z,79.52
2023-05-22T17:31:24.171Z,83.67
2023-05-22T17:33:51.874Z,82.69
2023-05-22T17:36:20.038Z,82.85
2023-05-22T17:38:47.693Z,82.23
2023-05-22T17:41:15.545Z,84.50
2023-05-22T17:43:43.229Z,85.64
2023-05-22T17:46:10.979Z,81.93
2023-05-22T17:48:40.989Z,82.30
2023-05-22T17:51:08.691Z,79.82
2023-05-22T17:53:38.520Z,84.72
2023-05-22T17:58:52.614Z,84.30
2023-05-22T18:01:20.560Z,77.48
2023-05-22T18:03:49.843Z,81.57
2023-05-22T18:06:17.639Z,76.05
2023-05-22T18:08:45.558Z,83.32
2023-05-22T18:11:13.240Z,76.25
2023-05-22T18:13:40.908Z,81.56
2023-05-22T18:16:08.859Z,81.65
2023-05-22T18:18:36.712Z,83.30
2023-05-22T18:21:06.593Z,82.33
2023-05-22T18:23:34.337Z,79.88
2023-05-22T18:26:03.343Z,85.12
2023-05-22T18:28:31.011Z,81.22
2023-05-22T18:31:00.361Z,84.28
2023-05-22T18:33:28.478Z,78.43
2023-05-22T18:35:57.294Z,70.89
2023-05-22T18:38:27.215Z,70.40
2023-05-22T18:40:55.675Z,65.65
2023-05-22T18:43:27.765Z,62.74
2023-05-22T18:45:56.839Z,62.69
2023-05-22T18:48:24.915Z,60.49
2023-05-22T18:50:52.833Z,60.42
2023-05-22T18:53:20.573Z,60.31
2023-05-22T18:55:49.858Z,59.58
2023-05-22T18:58:17.547Z,58.31
2023-05-22T19:00:45.662Z,57.64
2023-05-22T19:03:14.062Z,57.25
2023-05-22T19:05:41.822Z,60.50
2023-05-22T19:08:09.625Z,57.55
2023-05-22T19:10:37.397Z,58.83
2023-05-22T19:13:06.550Z,55.33
2023-05-22T19:15:35.820Z,56.64
2023-05-22T19:18:03.612Z,56.67
2023-05-22T19:20:31.350Z,58.63
2023-05-22T19:22:59.147Z,58.22
2023-05-22T19:25:27.009Z,57.77
2023-05-22T19:27:54.721Z,58.30
2023-05-22T19:30:24.431Z,58.43
2023-05-22T19:32:55.632Z,55.16
2023-05-22T19:35:23.488Z,57.41
2023-05-22T19:37:51.164Z,57.54
2023-05-22T19:40:18.946Z,59.39
2023-05-22T19:42:46.665Z,59.86
2023-05-22T19:45:14.410Z,58.56
2023-05-22T19:47:43.585Z,59.46
2023-05-22T19:50:12.395Z,58.82
2023-05-22T19:52:40.201Z,60.58
2023-05-22T19:55:09.478Z,60.41
2023-05-22T19:57:37.202Z,60.72
2023-05-22T20:00:07.475Z,61.67
2023-05-22T20:02:35.212Z,60.34
2023-05-22T20:05:04.488Z,63.08
2023-05-22T20:07:32.410Z,61.64
2023-05-22T20:10:00.135Z,62.05
2023-05-22T20:12:27.831Z,64.98
2023-05-22T20:14:55.788Z,62.73
2023-05-22T20:17:23.557Z,61.78
2023-05-22T20:19:51.266Z,60.57
2023-05-22T20:22:20.405Z,66.31
2023-05-22T20:24:48.433Z,61.99
2023-05-22T20:27:31.133Z,64.74
2023-05-22T20:30:00.223Z,63.80
2023-05-22T20:32:28.429Z,66.11
2023-05-22T20:34:56.269Z,63.64
2023-05-22T20:37:26.443Z,63.28
2023-05-22T20:39:54.484Z,64.16
2023-05-22T20:42:22.391Z,64.70
2023-05-22T20:44:50.213Z,63.69
2023-05-22T20:47:17.854Z,63.49
2023-05-22T20:49:45.510Z,63.21
2023-05-22T20:52:13.337Z,67.55
2023-05-22T20:54:42.990Z,65.34
2023-05-22T20:57:10.655Z,65.56
2023-05-22T20:59:38.546Z,63.61
2023-05-22T21:02:07.305Z,65.65
2023-05-22T21:04:35.109Z,67.88
2023-05-22T21:07:03.315Z,67.79
2023-05-22T21:09:31.077Z,70.17
2023-05-22T21:12:00.163Z,70.24
2023-05-22T21:14:27.861Z,71.25
2023-05-22T21:16:55.782Z,66.32
2023-05-22T21:19:23.528Z,67.80
2023-05-22T21:21:51.195Z,70.03
2023-05-22T21:24:18.936Z,65.35
2023-05-22T21:26:46.640Z,69.52
2023-05-22T21:29:15.754Z,73.87
2023-05-22T21:31:43.447Z,73.46
2023-05-22T21:34:11.127Z,74.00
2023-05-22T21:36:38.803Z,71.19
2023-05-22T21:39:06.511Z,74.92
2023-05-22T21:41:34.695Z,79.05
2023-05-22T21:44:02.434Z,74.11
2023-05-22T21:46:31.524Z,72.38
2023-05-22T21:48:59.895Z,77.54
2023-05-22T21:51:27.622Z,76.59
2023-05-22T21:53:55.333Z,81.28
2023-05-22T21:56:23.033Z,78.20
2023-05-22T21:58:50.814Z,78.31
2023-05-22T22:01:18.574Z,77.16
2023-05-22T22:03:47.742Z,73.76
2023-05-22T22:06:15.530Z,74.37
2023-05-22T22:08:43.199Z,72.03
2023-05-22T22:11:10.880Z,81.50
2023-05-22T22:13:38.552Z,75.14
2023-05-22T22:16:06.527Z,78.66
2023-05-22T22:18:34.559Z,81.86
2023-05-22T22:21:03.626Z,82.31
2023-05-22T22:23:34.410Z,84.18
2023-05-22T22:26:02.104Z,89.46
2023-05-22T22:28:29.752Z,82.37
2023-05-22T22:30:57.456Z,82.04
2023-05-22T22:33:25.124Z,84.64
2023-05-22T22:35:53.103Z,78.11
2023-05-22T22:38:22.379Z,81.29
2023-05-22T22:40:50.064Z,85.85
2023-05-22T22:43:17.719Z,90.91
2023-05-22T22:45:45.488Z,87.92
2023-05-22T22:48:13.334Z,86.22
2023-05-22T22:50:41.548Z,96.38
2023-05-22T22:53:09.615Z,96.63
2023-05-22T22:55:39.021Z,91.42
2023-05-22T22:58:07.842Z,90.94
2023-05-22T23:00:36.640Z,90.84
2023-05-22T23:03:04.527Z,92.68
2023-05-22T23:05:32.271Z,90.86
2023-05-22T23:08:01.958Z,87.80
2023-05-22T23:10:29.889Z,96.29
2023-05-22T23:12:59.237Z,92.03
2023-05-22T23:15:27.059Z,91.15
2023-05-22T23:17:54.759Z,98.40
2023-05-22T23:20:22.443Z,100.00
2023-05-22T23:22:50.127Z,99.56
2023-05-22T23:25:17.800Z,95.52
2023-05-22T23:27:45.672Z,100.00
2023-05-22T23:30:15.031Z,100.00
2023-05-22T23:32:42.731Z,91.46
2023-05-22T23:35:11.247Z,97.48
2023-05-22T23:37:38.906Z,93.05
2023-05-22T23:40:08.831Z,91.63
2023-05-22T23:42:37.412Z,95.06
2023-05-22T23:45:05.642Z,92.09
2023-05-22T23:47:34.719Z,93.51
2023-05-22T23:50:02.416Z,96.41
2023-05-22T23:52:30.090Z,86.73
2023-05-22T23:54:57.950Z,92.16
2023-05-22T23:57:25.683Z,92.73
2023-05-22T23:59:53.371Z,91.47
